Pagrindinis puslapis
METAR-TAF:

METAR-TAF

Oro uostai :

Kristianstadas, Švedija

platuma: 55-55N, ilguma: 014-05E, Aukštis: 23 m

Dabartinis oras

Ataskaita buvo paskelbta 32 minutes, ne 09:20 UTC
Vėjas 11 kt iš Pietų/Pietvakarių, svyruoja nuo Pietų ir Vakarų/Pietvakarių
Temperatūra 6°C
Drėgmė 87%
Slėgis 990 hPa
Matomumas 10 km arba daugiau
Su prošvaistėmis ne aukštis 1700 ft

METAR: ESMK 090920Z 21011KT 180V240 9999 BKN017 06/04 Q0990

Laikas: 10:52 (09:52 UTC)

Prognozė

Ataskaita buvo paskelbta 1 valandą ir 36 minutes, ne 08:16 UTC
Prognozė galioja nuo 09 metu 09 UTC su 09 metu 18 UTC
Vėjas 12 kt iš Pietvakarių
Matomumas 10 km arba daugiau
Su prošvaistėmis ne aukštis 2000 ft
Laikinai
nuo 09 metu 09 UTC su 09 metu 18 UTC
Vėjas 15 kt iš Vakarų/Pietvakarių su gūsio iki 28 kt
Matomumas: 4000 m
Su prošvaistėmis ne aukštis 1200 ft
Su prošvaistėmis ne aukštis 1500 ft, Liūtiniai kamuoliniai debesys.
lietus

TAF: ESMK 090816Z 0909/0918 22012KT 9999 BKN020 TEMPO 0909/0918 24015G28KT 4000 SHRA BKN012 BKN015CB

Orai ataskaitas ir orų prognozės (METAR, TAF).

turimą stotys yra geltonos ir raudonos taškus žemėlapyje.

Perkelti pele per norėdami pamatyti stoties vardą.

Tada spustelėkite, norėdami matyti oro stebėjimo ir prognozės.

Norėdami pakeisti žemėlapį: spustelėkite ant žalios mygtukų su juodo kryžiaus žemyn,; žalią mygtuką su brūkšneliu, jei norite nutolinti; arba žalių rodyklių gretimoms žemėlapius.


METAR-TAF: